AFL796 UWWW-LTAI
Flight info
| Callsign | AFL796 |
|---|---|
| Flight time | 4h 48m |
| Altitude | 34000 |
| Route | N0460F340 GIT11Y GITEK T784 DENUD M161 URL M158 ATR N60 GASBI N161 INDUR UN161 ERZ UL615 SIV UA285 MUT UR55 ADBEL |
| Aircraft | B738/M-VGDW/C |
Departure
| Time | 2025-10-10 09:07 |
|---|---|
| Airport | Kurumoch International Airport (UWWW) |
Arrival
| Time | 2025-10-10 13:56 |
|---|---|
| Airport | Antalya International Airport (LTAI) |
| Time | Latitude | Longitude | Altitude | Speed | Heading |
|---|---|---|---|---|---|
| 2025-10-10 08:56 | 53.51119 | 50.15761 | 485 ft | 0 kts | 332° |
| 2025-10-10 09:02 | 53.51118 | 50.15750 | 485 ft | 1 kts | 207° |
| 2025-10-10 09:03 | 53.51062 | 50.15825 | 485 ft | 5 kts | 90° |
| 2025-10-10 09:03 | 53.51082 | 50.15897 | 485 ft | 8 kts | 72° |
| 2025-10-10 09:03 | 53.51150 | 50.16146 | 485 ft | 14 kts | 64° |
| 2025-10-10 09:04 | 53.51258 | 50.16476 | 485 ft | 15 kts | 62° |
| 2025-10-10 09:04 | 53.51349 | 50.16751 | 485 ft | 11 kts | 61° |
| 2025-10-10 09:05 | 53.51383 | 50.16860 | 485 ft | 9 kts | 62° |
| 2025-10-10 09:05 | 53.51434 | 50.17025 | 485 ft | 8 kts | 84° |
| 2025-10-10 09:06 | 53.49388 | 50.18324 | 816 ft | 164 kts | 158° |
| 2025-10-10 09:06 | 53.48388 | 50.18933 | 1718 ft | 155 kts | 159° |
| 2025-10-10 09:07 | 53.46165 | 50.20243 | 2616 ft | 179 kts | 159° |
| 2025-10-10 09:07 | 53.43647 | 50.21760 | 3324 ft | 208 kts | 159° |
| 2025-10-10 09:08 | 53.40734 | 50.23452 | 4170 ft | 235 kts | 163° |
| 2025-10-10 09:08 | 53.37313 | 50.23490 | 5285 ft | 253 kts | 181° |
| 2025-10-10 09:09 | 53.33819 | 50.23123 | 6656 ft | 256 kts | 180° |
| 2025-10-10 09:10 | 53.28419 | 50.22615 | 8560 ft | 264 kts | 181° |
| 2025-10-10 09:10 | 53.24730 | 50.22271 | 9749 ft | 271 kts | 181° |
| 2025-10-10 09:10 | 53.22854 | 50.22095 | 10341 ft | 274 kts | 181° |
| 2025-10-10 09:11 | 53.18840 | 50.21724 | 10886 ft | 305 kts | 181° |
| 2025-10-10 09:11 | 53.14415 | 50.21313 | 11436 ft | 334 kts | 181° |
| 2025-10-10 09:12 | 53.09620 | 50.20869 | 12347 ft | 350 kts | 181° |
| 2025-10-10 09:12 | 53.04757 | 50.20420 | 13513 ft | 357 kts | 181° |
| 2025-10-10 09:13 | 52.99783 | 50.19958 | 14751 ft | 363 kts | 182° |
| 2025-10-10 09:14 | 52.92113 | 50.19250 | 16525 ft | 373 kts | 182° |
| 2025-10-10 09:14 | 52.89528 | 50.19011 | 17131 ft | 376 kts | 182° |
| 2025-10-10 09:14 | 52.84322 | 50.17836 | 18195 ft | 383 kts | 194° |
| 2025-10-10 09:15 | 52.79310 | 50.14779 | 19313 ft | 389 kts | 202° |
| 2025-10-10 09:15 | 52.74352 | 50.11137 | 20405 ft | 393 kts | 203° |
| 2025-10-10 09:16 | 52.69360 | 50.07466 | 21450 ft | 397 kts | 202° |
| 2025-10-10 09:16 | 52.64153 | 50.04585 | 22422 ft | 400 kts | 189° |
| 2025-10-10 09:17 | 52.58596 | 50.04242 | 23358 ft | 404 kts | 176° |
| 2025-10-10 09:18 | 52.50483 | 50.08304 | 24621 ft | 415 kts | 154° |
| 2025-10-10 09:18 | 52.43560 | 50.16965 | 25835 ft | 425 kts | 140° |
| 2025-10-10 09:20 | 52.25574 | 50.43012 | 28635 ft | 444 kts | 140° |
| 2025-10-10 09:22 | 52.06836 | 50.69771 | 31640 ft | 445 kts | 141° |
| 2025-10-10 09:24 | 51.87199 | 50.90154 | 34481 ft | 421 kts | 167° |
| 2025-10-10 09:26 | 51.64951 | 51.01389 | 35087 ft | 421 kts | 153° |
| 2025-10-10 09:28 | 51.45218 | 51.22064 | 35108 ft | 423 kts | 150° |
| 2025-10-10 09:30 | 51.25672 | 51.42912 | 35155 ft | 424 kts | 149° |
| 2025-10-10 09:32 | 51.04313 | 51.55109 | 35156 ft | 414 kts | 179° |
| 2025-10-10 09:34 | 50.81388 | 51.56596 | 35115 ft | 413 kts | 179° |
| 2025-10-10 09:36 | 50.58474 | 51.58096 | 35056 ft | 414 kts | 179° |
| 2025-10-10 09:38 | 50.35597 | 51.59601 | 35048 ft | 413 kts | 178° |
| 2025-10-10 09:40 | 50.15540 | 51.60977 | 35039 ft | 413 kts | 178° |
| 2025-10-10 09:42 | 49.89771 | 51.62725 | 35033 ft | 412 kts | 179° |
| 2025-10-10 09:44 | 49.66823 | 51.64265 | 35024 ft | 415 kts | 179° |
| 2025-10-10 09:46 | 49.43845 | 51.65793 | 35023 ft | 414 kts | 179° |
| 2025-10-10 09:48 | 49.20796 | 51.67309 | 35008 ft | 417 kts | 180° |
| 2025-10-10 09:50 | 48.97740 | 51.68809 | 34996 ft | 415 kts | 180° |
| 2025-10-10 09:52 | 48.74636 | 51.70299 | 34992 ft | 416 kts | 180° |
| 2025-10-10 09:54 | 48.51508 | 51.71774 | 34983 ft | 418 kts | 180° |
| 2025-10-10 09:56 | 48.28332 | 51.73240 | 34990 ft | 416 kts | 181° |
| 2025-10-10 09:58 | 48.05235 | 51.74689 | 34975 ft | 417 kts | 181° |
| 2025-10-10 10:00 | 47.82100 | 51.76116 | 34976 ft | 418 kts | 181° |
| 2025-10-10 10:02 | 47.58939 | 51.77510 | 34952 ft | 419 kts | 181° |
| 2025-10-10 10:04 | 47.38595 | 51.78721 | 35000 ft | 419 kts | 182° |
| 2025-10-10 10:06 | 47.12665 | 51.79644 | 35165 ft | 417 kts | 191° |
| 2025-10-10 10:08 | 46.92844 | 51.75341 | 35960 ft | 408 kts | 193° |
| 2025-10-10 10:10 | 46.67622 | 51.69750 | 35931 ft | 410 kts | 193° |
| 2025-10-10 10:12 | 46.47992 | 51.65436 | 35921 ft | 409 kts | 194° |
| 2025-10-10 10:14 | 46.22786 | 51.59902 | 35920 ft | 406 kts | 194° |
| 2025-10-10 10:16 | 46.03229 | 51.55629 | 35904 ft | 407 kts | 194° |
| 2025-10-10 10:18 | 45.78126 | 51.50193 | 35898 ft | 406 kts | 194° |
| 2025-10-10 10:20 | 45.58559 | 51.45997 | 35915 ft | 405 kts | 194° |
| 2025-10-10 10:22 | 45.33595 | 51.40683 | 35899 ft | 404 kts | 195° |
| 2025-10-10 10:24 | 45.14181 | 51.36587 | 35887 ft | 402 kts | 195° |
| 2025-10-10 10:26 | 44.89259 | 51.31364 | 35896 ft | 404 kts | 194° |
| 2025-10-10 10:28 | 44.69941 | 51.26930 | 35906 ft | 401 kts | 196° |
| 2025-10-10 10:30 | 44.45262 | 51.20739 | 35910 ft | 402 kts | 196° |
| 2025-10-10 10:32 | 44.26072 | 51.15982 | 35901 ft | 401 kts | 197° |
| 2025-10-10 10:34 | 44.01362 | 51.09906 | 35884 ft | 401 kts | 197° |
| 2025-10-10 10:36 | 43.82377 | 51.04523 | 35882 ft | 394 kts | 203° |
| 2025-10-10 10:38 | 43.58802 | 50.94456 | 35891 ft | 394 kts | 203° |
| 2025-10-10 10:40 | 43.40494 | 50.86782 | 35910 ft | 393 kts | 204° |
| 2025-10-10 10:42 | 43.19619 | 50.78089 | 35906 ft | 393 kts | 204° |
| 2025-10-10 10:44 | 42.98741 | 50.69467 | 35922 ft | 392 kts | 204° |
| 2025-10-10 10:46 | 42.75528 | 50.59291 | 35919 ft | 377 kts | 222° |
| 2025-10-10 10:48 | 42.63192 | 50.41171 | 35927 ft | 373 kts | 229° |
| 2025-10-10 10:50 | 42.48644 | 50.21161 | 35954 ft | 372 kts | 228° |
| 2025-10-10 10:52 | 42.32193 | 49.98838 | 35950 ft | 373 kts | 227° |
| 2025-10-10 10:54 | 42.19395 | 49.81591 | 35951 ft | 372 kts | 227° |
| 2025-10-10 10:56 | 42.04792 | 49.62039 | 35966 ft | 372 kts | 227° |
| 2025-10-10 10:58 | 41.90129 | 49.42549 | 35990 ft | 371 kts | 227° |
| 2025-10-10 11:00 | 41.76719 | 49.21751 | 35984 ft | 369 kts | 237° |
| 2025-10-10 11:02 | 41.65328 | 48.99014 | 35971 ft | 369 kts | 237° |
| 2025-10-10 11:04 | 41.53909 | 48.76327 | 35958 ft | 369 kts | 237° |
| 2025-10-10 11:06 | 41.41752 | 48.54313 | 36035 ft | 371 kts | 235° |
| 2025-10-10 11:08 | 41.29717 | 48.32232 | 36108 ft | 370 kts | 235° |
| 2025-10-10 11:10 | 41.16111 | 48.07465 | 36129 ft | 371 kts | 235° |
| 2025-10-10 11:12 | 41.05468 | 47.88244 | 36025 ft | 370 kts | 234° |
| 2025-10-10 11:14 | 40.90394 | 47.64922 | 35909 ft | 370 kts | 232° |
| 2025-10-10 11:16 | 40.76912 | 47.44165 | 35922 ft | 372 kts | 232° |
| 2025-10-10 11:18 | 40.63696 | 47.23206 | 35956 ft | 373 kts | 233° |
| 2025-10-10 11:20 | 40.57857 | 46.97428 | 35968 ft | 376 kts | 257° |
| 2025-10-10 11:22 | 40.54198 | 46.70428 | 36030 ft | 376 kts | 257° |
| 2025-10-10 11:24 | 40.50929 | 46.46801 | 36037 ft | 377 kts | 257° |
| 2025-10-10 11:26 | 40.46664 | 46.16502 | 36074 ft | 375 kts | 256° |
| 2025-10-10 11:28 | 40.42785 | 45.89481 | 36257 ft | 379 kts | 257° |
| 2025-10-10 11:30 | 40.38842 | 45.62422 | 36233 ft | 379 kts | 257° |
| 2025-10-10 11:32 | 40.35184 | 45.35245 | 36235 ft | 380 kts | 258° |
| 2025-10-10 11:34 | 40.31442 | 45.08070 | 36206 ft | 380 kts | 257° |
| 2025-10-10 11:36 | 40.27639 | 44.81000 | 36172 ft | 382 kts | 258° |
| 2025-10-10 11:38 | 40.23782 | 44.53857 | 36080 ft | 380 kts | 258° |
| 2025-10-10 11:40 | 40.20071 | 44.26722 | 36071 ft | 379 kts | 258° |
| 2025-10-10 11:42 | 40.16266 | 43.99578 | 36089 ft | 382 kts | 258° |
| 2025-10-10 11:44 | 40.12403 | 43.72465 | 36077 ft | 380 kts | 258° |
| 2025-10-10 11:46 | 40.10395 | 43.44955 | 36185 ft | 384 kts | 264° |
| 2025-10-10 11:48 | 40.08863 | 43.17245 | 36237 ft | 384 kts | 264° |
| 2025-10-10 11:50 | 40.07256 | 42.89552 | 36221 ft | 385 kts | 264° |
| 2025-10-10 11:52 | 40.05584 | 42.61752 | 36190 ft | 386 kts | 264° |
| 2025-10-10 11:54 | 40.03809 | 42.33928 | 36196 ft | 387 kts | 263° |
| 2025-10-10 11:56 | 40.01875 | 42.06191 | 36202 ft | 385 kts | 264° |
| 2025-10-10 11:58 | 39.99883 | 41.78438 | 36210 ft | 385 kts | 263° |
| 2025-10-10 12:00 | 39.97881 | 41.50608 | 36216 ft | 387 kts | 264° |
| 2025-10-10 12:02 | 39.95826 | 41.22837 | 36243 ft | 386 kts | 263° |
| 2025-10-10 12:04 | 39.95663 | 40.98423 | 36246 ft | 386 kts | 269° |
| 2025-10-10 12:06 | 39.95614 | 40.67099 | 36239 ft | 385 kts | 269° |
| 2025-10-10 12:08 | 39.95490 | 40.39186 | 36197 ft | 388 kts | 269° |
| 2025-10-10 12:10 | 39.95309 | 40.11334 | 36201 ft | 384 kts | 269° |
| 2025-10-10 12:12 | 39.95054 | 39.83585 | 36224 ft | 383 kts | 269° |
| 2025-10-10 12:14 | 39.94722 | 39.55841 | 36216 ft | 385 kts | 269° |
| 2025-10-10 12:16 | 39.94340 | 39.28122 | 36227 ft | 384 kts | 269° |
| 2025-10-10 12:18 | 39.93907 | 39.00483 | 36209 ft | 382 kts | 269° |
| 2025-10-10 12:20 | 39.92690 | 38.72944 | 36251 ft | 383 kts | 265° |
| 2025-10-10 12:22 | 39.90795 | 38.45485 | 36253 ft | 382 kts | 265° |
| 2025-10-10 12:24 | 39.88839 | 38.17825 | 37442 ft | 387 kts | 265° |
| 2025-10-10 12:26 | 39.86807 | 37.89963 | 38233 ft | 384 kts | 265° |
| 2025-10-10 12:28 | 39.85013 | 37.65791 | 38254 ft | 384 kts | 265° |
| 2025-10-10 12:30 | 39.82626 | 37.34798 | 38255 ft | 384 kts | 264° |
| 2025-10-10 12:32 | 39.80693 | 37.10673 | 38292 ft | 383 kts | 264° |
| 2025-10-10 12:34 | 39.73452 | 36.81667 | 38296 ft | 396 kts | 232° |
| 2025-10-10 12:36 | 39.60205 | 36.63600 | 38276 ft | 395 kts | 232° |
| 2025-10-10 12:38 | 39.43219 | 36.40432 | 38248 ft | 397 kts | 232° |
| 2025-10-10 12:40 | 39.29943 | 36.22478 | 38256 ft | 394 kts | 231° |
| 2025-10-10 12:42 | 39.12850 | 35.99632 | 38255 ft | 397 kts | 230° |
| 2025-10-10 12:44 | 38.99015 | 35.82478 | 38262 ft | 394 kts | 230° |
| 2025-10-10 12:46 | 38.81555 | 35.60213 | 38274 ft | 394 kts | 231° |
| 2025-10-10 12:48 | 38.68099 | 35.42952 | 38263 ft | 394 kts | 231° |
| 2025-10-10 12:50 | 38.50626 | 35.20855 | 38276 ft | 395 kts | 227° |
| 2025-10-10 12:52 | 38.35800 | 35.05031 | 38278 ft | 396 kts | 228° |
| 2025-10-10 12:54 | 38.17952 | 34.83493 | 38259 ft | 393 kts | 230° |
| 2025-10-10 12:56 | 38.04026 | 34.66804 | 38255 ft | 396 kts | 230° |
| 2025-10-10 12:58 | 37.86107 | 34.45491 | 38270 ft | 392 kts | 230° |
| 2025-10-10 13:00 | 37.72180 | 34.28970 | 38276 ft | 393 kts | 229° |
| 2025-10-10 13:02 | 37.54257 | 34.07849 | 38277 ft | 392 kts | 229° |
| 2025-10-10 13:04 | 37.40325 | 33.91536 | 38253 ft | 395 kts | 229° |
| 2025-10-10 13:06 | 37.22296 | 33.70602 | 38238 ft | 392 kts | 229° |
| 2025-10-10 13:08 | 37.08283 | 33.54424 | 38221 ft | 391 kts | 229° |
| 2025-10-10 13:10 | 36.90484 | 33.33545 | 38216 ft | 385 kts | 237° |
| 2025-10-10 13:12 | 36.86836 | 33.11940 | 38201 ft | 374 kts | 271° |
| 2025-10-10 13:14 | 36.87776 | 32.82885 | 38140 ft | 370 kts | 271° |
| 2025-10-10 13:16 | 36.88414 | 32.61067 | 34569 ft | 359 kts | 272° |
| 2025-10-10 13:18 | 36.89172 | 32.33185 | 30451 ft | 348 kts | 271° |
| 2025-10-10 13:20 | 36.89706 | 32.12254 | 27262 ft | 334 kts | 271° |
| 2025-10-10 13:22 | 36.82863 | 31.89403 | 25188 ft | 340 kts | 224° |
| 2025-10-10 13:24 | 36.69836 | 31.76748 | 25128 ft | 339 kts | 224° |
| 2025-10-10 13:26 | 36.54853 | 31.58972 | 25115 ft | 323 kts | 253° |
| 2025-10-10 13:28 | 36.55122 | 31.39772 | 25110 ft | 322 kts | 284° |
| 2025-10-10 13:30 | 36.71787 | 31.27189 | 25115 ft | 366 kts | 358° |
| 2025-10-10 13:32 | 36.89527 | 31.29237 | 25134 ft | 366 kts | 358° |
| 2025-10-10 13:34 | 37.12208 | 31.32371 | 25145 ft | 343 kts | 356° |
| 2025-10-10 13:36 | 37.25673 | 31.25611 | 24952 ft | 316 kts | 344° |
| 2025-10-10 13:37 | 37.32190 | 31.24860 | 24200 ft | 312 kts | 351° |
| 2025-10-10 13:37 | 37.36530 | 31.25257 | 23701 ft | 315 kts | 358° |
| 2025-10-10 13:38 | 37.40874 | 31.25849 | 23202 ft | 313 kts | 358° |
| 2025-10-10 13:38 | 37.45184 | 31.26448 | 22718 ft | 310 kts | 358° |
| 2025-10-10 13:39 | 37.47311 | 31.26743 | 22481 ft | 308 kts | 358° |
| 2025-10-10 13:39 | 37.53346 | 31.25800 | 21746 ft | 284 kts | 329° |
| 2025-10-10 13:40 | 37.56540 | 31.23126 | 21248 ft | 271 kts | 309° |
| 2025-10-10 13:40 | 37.57763 | 31.21307 | 20996 ft | 268 kts | 303° |
| 2025-10-10 13:41 | 37.59694 | 31.14917 | 20252 ft | 263 kts | 277° |
| 2025-10-10 13:41 | 37.60187 | 31.10381 | 19751 ft | 261 kts | 291° |
| 2025-10-10 13:42 | 37.61976 | 31.06423 | 19257 ft | 262 kts | 305° |
| 2025-10-10 13:42 | 37.63160 | 31.04671 | 19010 ft | 263 kts | 309° |
| 2025-10-10 13:43 | 37.65614 | 31.01312 | 18487 ft | 257 kts | 297° |
| 2025-10-10 13:43 | 37.65385 | 30.97069 | 17675 ft | 267 kts | 240° |
| 2025-10-10 13:44 | 37.62998 | 30.93449 | 16949 ft | 269 kts | 234° |
| 2025-10-10 13:44 | 37.58986 | 30.88486 | 15880 ft | 270 kts | 225° |
| 2025-10-10 13:45 | 37.55328 | 30.87095 | 15106 ft | 291 kts | 186° |
| 2025-10-10 13:45 | 37.51322 | 30.87023 | 14446 ft | 286 kts | 189° |
| 2025-10-10 13:46 | 37.47389 | 30.86592 | 13623 ft | 283 kts | 191° |
| 2025-10-10 13:46 | 37.45426 | 30.86323 | 13211 ft | 280 kts | 192° |
| 2025-10-10 13:47 | 37.39690 | 30.85354 | 12004 ft | 275 kts | 191° |
| 2025-10-10 13:47 | 37.37797 | 30.85129 | 11617 ft | 274 kts | 188° |
| 2025-10-10 13:48 | 37.34040 | 30.84771 | 10857 ft | 270 kts | 188° |
| 2025-10-10 13:48 | 37.30296 | 30.84374 | 9880 ft | 276 kts | 187° |
| 2025-10-10 13:49 | 37.24190 | 30.83723 | 7340 ft | 311 kts | 186° |
| 2025-10-10 13:49 | 37.19809 | 30.83290 | 5624 ft | 323 kts | 185° |
| 2025-10-10 13:50 | 37.15417 | 30.82744 | 4589 ft | 306 kts | 186° |
| 2025-10-10 13:50 | 37.13350 | 30.82463 | 4409 ft | 289 kts | 186° |
| 2025-10-10 13:51 | 37.09459 | 30.81929 | 3657 ft | 275 kts | 186° |
| 2025-10-10 13:51 | 37.05751 | 30.81416 | 2948 ft | 262 kts | 186° |
| 2025-10-10 13:52 | 37.02412 | 30.80964 | 2301 ft | 220 kts | 187° |
| 2025-10-10 13:52 | 36.99622 | 30.80579 | 1786 ft | 183 kts | 188° |
| 2025-10-10 13:53 | 36.96206 | 30.80112 | 1117 ft | 150 kts | 189° |
| 2025-10-10 13:53 | 36.94170 | 30.79828 | 804 ft | 146 kts | 188° |
| 2025-10-10 13:54 | 36.92162 | 30.79555 | 442 ft | 145 kts | 187° |
| 2025-10-10 13:54 | 36.91170 | 30.79419 | 203 ft | 137 kts | 185° |
| 2025-10-10 13:55 | 36.89709 | 30.79223 | 184 ft | 25 kts | 186° |
| 2025-10-10 13:55 | 36.89542 | 30.79258 | 184 ft | 23 kts | 157° |
| 2025-10-10 13:56 | 36.89318 | 30.79406 | 184 ft | 15 kts | 116° |
| 2025-10-10 13:56 | 36.89290 | 30.79642 | 184 ft | 12 kts | 98° |
| 2025-10-10 13:57 | 36.89263 | 30.79921 | 184 ft | 8 kts | 94° |
| 2025-10-10 13:57 | 36.89327 | 30.79978 | 184 ft | 5 kts | 6° |
| 2025-10-10 13:58 | 36.89333 | 30.79979 | 184 ft | 0 kts | 6° |